Terminal Aerodrome Forecast
Issued by NWS Twin Cities, MN

Home | Current Version | Previous Version | Graphics & Text | Print | Product List | Glossary On
Versions: 1 2 3 4 5 6 7 8 9 10 11 12 13 14 15 16 17 18 19 20 21 22 23 24 25 26 27 28
000
FTUS43 KMPX 250934 AAB
TAFMSP
TAF AMD
KMSP 250934Z 2510/2612 02008KT P6SM BKN100
     FM251200 03007KT P6SM SCT020 OVC040
     FM251400 04007KT 2SM -SN SCT012 OVC020
     FM251700 02008KT 3SM -SN BKN020 OVC030
     FM251900 01009KT P6SM BKN040
     FM260300 35008KT P6SM SCT050=

USA.gov is the U.S. government's official web portal to all federal, state and local government web resources and services.